sensor_id;sensor_type;location;lat;lon;timestamp;temperature;humidity
66726;HTU21D;53638;51.062;5.804;2023-02-28T00:01:32;1.34;118.99
66726;HTU21D;53638;51.062;5.804;2023-02-28T00:03:58;1.35;118.99
66726;HTU21D;53638;51.062;5.804;2023-02-28T00:06:24;1.33;118.99
66726;HTU21D;53638;51.062;5.804;2023-02-28T00:08:50;1.34;118.99
66726;HTU21D;53638;51.062;5.804;2023-02-28T00:11:16;1.33;118.99
66726;HTU21D;53638;51.062;5.804;2023-02-28T00:13:45;1.32;118.99
66726;HTU21D;53638;51.062;5.804;2023-02-28T00:16:44;1.31;118.99
66726;HTU21D;53638;51.062;5.804;2023-02-28T00:19:10;1.29;118.99
66726;HTU21D;53638;51.062;5.804;2023-02-28T00:21:51;1.26;118.99
66726;HTU21D;53638;51.062;5.804;2023-02-28T00:24:17;1.25;118.99
66726;HTU21D;53638;51.062;5.804;2023-02-28T00:26:43;1.22;118.99
66726;HTU21D;53638;51.062;5.804;2023-02-28T00:29:09;1.18;118.99
66726;HTU21D;53638;51.062;5.804;2023-02-28T00:31:48;1.18;118.99
66726;HTU21D;53638;51.062;5.804;2023-02-28T00:34:17;1.17;118.99
66726;HTU21D;53638;51.062;5.804;2023-02-28T00:36:43;1.17;118.99
66726;HTU21D;53638;51.062;5.804;2023-02-28T00:39:11;1.14;118.99
66726;HTU21D;53638;51.062;5.804;2023-02-28T00:41:37;1.12;118.99
66726;HTU21D;53638;51.062;5.804;2023-02-28T00:44:03;1.09;118.99
66726;HTU21D;53638;51.062;5.804;2023-02-28T00:46:31;1.10;118.99
66726;HTU21D;53638;51.062;5.804;2023-02-28T00:48:57;1.10;118.99
66726;HTU21D;53638;51.062;5.804;2023-02-28T00:51:29;1.09;118.99
66726;HTU21D;53638;51.062;5.804;2023-02-28T00:53:56;1.10;118.99
66726;HTU21D;53638;51.062;5.804;2023-02-28T00:56:23;1.09;118.99
66726;HTU21D;53638;51.062;5.804;2023-02-28T00:58:50;1.07;118.99
66726;HTU21D;53638;51.062;5.804;2023-02-28T01:01:18;1.06;118.99
66726;HTU21D;53638;51.062;5.804;2023-02-28T01:03:44;1.04;118.99
66726;HTU21D;53638;51.062;5.804;2023-02-28T01:06:10;1.02;118.99
66726;HTU21D;53638;51.062;5.804;2023-02-28T01:08:37;0.98;118.99
66726;HTU21D;53638;51.062;5.804;2023-02-28T01:11:09;0.98;118.99
66726;HTU21D;53638;51.062;5.804;2023-02-28T01:13:36;0.96;118.99
66726;HTU21D;53638;51.062;5.804;2023-02-28T01:16:05;0.97;118.99
66726;HTU21D;53638;51.062;5.804;2023-02-28T01:18:32;0.94;118.99
66726;HTU21D;53638;51.062;5.804;2023-02-28T01:21:06;0.90;118.99
66726;HTU21D;53638;51.062;5.804;2023-02-28T01:23:32;0.93;118.99
66726;HTU21D;53638;51.062;5.804;2023-02-28T01:26:04;0.90;118.99
66726;HTU21D;53638;51.062;5.804;2023-02-28T01:28:30;0.90;118.99
66726;HTU21D;53638;51.062;5.804;2023-02-28T01:30:56;0.87;118.99
66726;HTU21D;53638;51.062;5.804;2023-02-28T01:33:27;0.86;118.99
66726;HTU21D;53638;51.062;5.804;2023-02-28T01:36:05;0.86;118.99
66726;HTU21D;53638;51.062;5.804;2023-02-28T01:38:34;0.86;118.99
66726;HTU21D;53638;51.062;5.804;2023-02-28T01:41:00;0.83;118.99
66726;HTU21D;53638;51.062;5.804;2023-02-28T01:43:30;0.81;118.99
66726;HTU21D;53638;51.062;5.804;2023-02-28T01:46:31;0.78;118.99
66726;HTU21D;53638;51.062;5.804;2023-02-28T01:48:59;0.78;118.99
66726;HTU21D;53638;51.062;5.804;2023-02-28T01:51:34;0.75;118.99
66726;HTU21D;53638;51.062;5.804;2023-02-28T01:54:09;0.72;118.99
66726;HTU21D;53638;51.062;5.804;2023-02-28T01:56:45;0.73;118.99
66726;HTU21D;53638;51.062;5.804;2023-02-28T01:59:26;0.69;118.99
66726;HTU21D;53638;51.062;5.804;2023-02-28T02:01:53;0.63;118.99
66726;HTU21D;53638;51.062;5.804;2023-02-28T02:04:23;0.61;118.99
66726;HTU21D;53638;51.062;5.804;2023-02-28T02:06:52;0.60;118.99
66726;HTU21D;53638;51.062;5.804;2023-02-28T02:09:18;0.59;118.99
66726;HTU21D;53638;51.062;5.804;2023-02-28T02:11:45;0.59;118.99
66726;HTU21D;53638;51.062;5.804;2023-02-28T02:14:30;0.55;118.99
66726;HTU21D;53638;51.062;5.804;2023-02-28T02:20:11;0.51;118.99
66726;HTU21D;53638;51.062;5.804;2023-02-28T02:25:52;0.45;118.99
66726;HTU21D;53638;51.062;5.804;2023-02-28T02:31:11;0.40;118.99
66726;HTU21D;53638;51.062;5.804;2023-02-28T02:36:42;0.37;118.99
66726;HTU21D;53638;51.062;5.804;2023-02-28T02:39:25;0.36;118.99
66726;HTU21D;53638;51.062;5.804;2023-02-28T02:42:01;0.36;118.99
66726;HTU21D;53638;51.062;5.804;2023-02-28T02:44:37;0.39;118.99
66726;HTU21D;53638;51.062;5.804;2023-02-28T02:47:10;0.38;118.99
66726;HTU21D;53638;51.062;5.804;2023-02-28T02:49:45;0.37;118.99
66726;HTU21D;53638;51.062;5.804;2023-02-28T02:52:17;0.37;118.99
66726;HTU21D;53638;51.062;5.804;2023-02-28T02:54:48;0.37;118.99
66726;HTU21D;53638;51.062;5.804;2023-02-28T02:57:46;0.35;118.99
66726;HTU21D;53638;51.062;5.804;2023-02-28T03:00:37;0.34;118.99
66726;HTU21D;53638;51.062;5.804;2023-02-28T03:03:08;0.33;118.99
66726;HTU21D;53638;51.062;5.804;2023-02-28T03:05:46;0.29;118.99
66726;HTU21D;53638;51.062;5.804;2023-02-28T03:08:12;0.28;118.99
66726;HTU21D;53638;51.062;5.804;2023-02-28T03:10:51;0.27;118.99
66726;HTU21D;53638;51.062;5.804;2023-02-28T03:13:33;0.25;118.99
66726;HTU21D;53638;51.062;5.804;2023-02-28T03:22:28;0.22;118.99
66726;HTU21D;53638;51.062;5.804;2023-02-28T03:25:32;0.24;118.99
66726;HTU21D;53638;51.062;5.804;2023-02-28T03:30:49;0.21;118.99
66726;HTU21D;53638;51.062;5.804;2023-02-28T03:33:32;0.21;118.99
66726;HTU21D;53638;51.062;5.804;2023-02-28T03:36:13;0.19;118.99
66726;HTU21D;53638;51.062;5.804;2023-02-28T03:38:47;0.21;118.99
66726;HTU21D;53638;51.062;5.804;2023-02-28T03:41:27;0.25;118.99
66726;HTU21D;53638;51.062;5.804;2023-02-28T03:44:08;0.30;118.99
66726;HTU21D;53638;51.062;5.804;2023-02-28T03:46:43;0.33;118.99
66726;HTU21D;53638;51.062;5.804;2023-02-28T03:49:19;0.34;118.99
66726;HTU21D;53638;51.062;5.804;2023-02-28T03:51:49;0.37;118.99
66726;HTU21D;53638;51.062;5.804;2023-02-28T03:54:42;0.38;118.99
66726;HTU21D;53638;51.062;5.804;2023-02-28T03:57:22;0.36;118.99
66726;HTU21D;53638;51.062;5.804;2023-02-28T03:59:56;0.35;118.99
66726;HTU21D;53638;51.062;5.804;2023-02-28T04:02:25;0.32;118.99
66726;HTU21D;53638;51.062;5.804;2023-02-28T04:04:51;0.30;118.99
66726;HTU21D;53638;51.062;5.804;2023-02-28T04:07:17;0.29;118.99
66726;HTU21D;53638;51.062;5.804;2023-02-28T04:09:43;0.25;118.99
66726;HTU21D;53638;51.062;5.804;2023-02-28T04:12:09;0.27;118.99
66726;HTU21D;53638;51.062;5.804;2023-02-28T04:14:35;0.24;118.99
66726;HTU21D;53638;51.062;5.804;2023-02-28T04:17:01;0.23;118.99
66726;HTU21D;53638;51.062;5.804;2023-02-28T04:19:27;0.21;118.99
66726;HTU21D;53638;51.062;5.804;2023-02-28T04:21:54;0.19;118.99
66726;HTU21D;53638;51.062;5.804;2023-02-28T04:24:45;0.13;118.99
66726;HTU21D;53638;51.062;5.804;2023-02-28T04:27:11;0.07;118.99
66726;HTU21D;53638;51.062;5.804;2023-02-28T04:29:37;0.03;118.99
66726;HTU21D;53638;51.062;5.804;2023-02-28T04:32:04;-0.01;118.99
66726;HTU21D;53638;51.062;5.804;2023-02-28T04:34:31;-0.00;118.99
66726;HTU21D;53638;51.062;5.804;2023-02-28T04:37:10;-0.03;118.99
66726;HTU21D;53638;51.062;5.804;2023-02-28T04:39:36;-0.05;118.99
66726;HTU21D;53638;51.062;5.804;2023-02-28T04:44:42;-0.02;118.99
66726;HTU21D;53638;51.062;5.804;2023-02-28T04:47:08;-0.05;118.99
66726;HTU21D;53638;51.062;5.804;2023-02-28T04:49:34;-0.07;118.99
66726;HTU21D;53638;51.062;5.804;2023-02-28T04:52:11;-0.13;118.99
66726;HTU21D;53638;51.062;5.804;2023-02-28T04:54:38;-0.16;118.99
66726;HTU21D;53638;51.062;5.804;2023-02-28T04:57:04;-0.20;118.99
66726;HTU21D;53638;51.062;5.804;2023-02-28T04:59:46;-0.24;118.99
66726;HTU21D;53638;51.062;5.804;2023-02-28T05:02:12;-0.28;118.99
66726;HTU21D;53638;51.062;5.804;2023-02-28T05:04:38;-0.31;118.99
66726;HTU21D;53638;51.062;5.804;2023-02-28T05:07:19;-0.37;118.99
66726;HTU21D;53638;51.062;5.804;2023-02-28T05:10:10;-0.43;118.99
66726;HTU21D;53638;51.062;5.804;2023-02-28T05:12:36;-0.46;118.99
66726;HTU21D;53638;51.062;5.804;2023-02-28T05:15:28;-0.43;118.99
66726;HTU21D;53638;51.062;5.804;2023-02-28T05:17:54;-0.44;118.99
66726;HTU21D;53638;51.062;5.804;2023-02-28T05:20:21;-0.43;118.99
66726;HTU21D;53638;51.062;5.804;2023-02-28T05:22:50;-0.40;118.99
66726;HTU21D;53638;51.062;5.804;2023-02-28T05:25:20;-0.42;118.99
66726;HTU21D;53638;51.062;5.804;2023-02-28T05:27:53;-0.45;118.99
66726;HTU21D;53638;51.062;5.804;2023-02-28T05:30:19;-0.46;118.99
66726;HTU21D;53638;51.062;5.804;2023-02-28T05:32:50;-0.49;118.99
66726;HTU21D;53638;51.062;5.804;2023-02-28T05:35:16;-0.46;118.99
66726;HTU21D;53638;51.062;5.804;2023-02-28T05:37:42;-0.44;118.99
66726;HTU21D;53638;51.062;5.804;2023-02-28T05:47:28;-0.32;118.99
66726;HTU21D;53638;51.062;5.804;2023-02-28T05:50:18;-0.27;118.99
66726;HTU21D;53638;51.062;5.804;2023-02-28T05:52:43;-0.23;118.99
66726;HTU21D;53638;51.062;5.804;2023-02-28T05:55:09;-0.17;118.99
66726;HTU21D;53638;51.062;5.804;2023-02-28T05:57:35;-0.15;118.99
66726;HTU21D;53638;51.062;5.804;2023-02-28T06:00:02;-0.14;118.99
66726;HTU21D;53638;51.062;5.804;2023-02-28T06:02:38;-0.13;118.99
66726;HTU21D;53638;51.062;5.804;2023-02-28T06:05:07;-0.15;118.99
66726;HTU21D;53638;51.062;5.804;2023-02-28T06:07:34;-0.16;118.99
66726;HTU21D;53638;51.062;5.804;2023-02-28T06:10:00;-0.22;118.99
66726;HTU21D;53638;51.062;5.804;2023-02-28T06:12:26;-0.23;118.99
66726;HTU21D;53638;51.062;5.804;2023-02-28T06:14:59;-0.26;118.99
66726;HTU21D;53638;51.062;5.804;2023-02-28T06:17:25;-0.30;118.99
66726;HTU21D;53638;51.062;5.804;2023-02-28T06:20:07;-0.30;118.99
66726;HTU21D;53638;51.062;5.804;2023-02-28T06:22:35;-0.34;118.99
66726;HTU21D;53638;51.062;5.804;2023-02-28T06:25:02;-0.34;118.99
66726;HTU21D;53638;51.062;5.804;2023-02-28T06:27:32;-0.36;118.99
66726;HTU21D;53638;51.062;5.804;2023-02-28T06:29:58;-0.35;118.99
66726;HTU21D;53638;51.062;5.804;2023-02-28T06:32:32;-0.32;118.99
66726;HTU21D;53638;51.062;5.804;2023-02-28T06:34:58;-0.31;118.99
66726;HTU21D;53638;51.062;5.804;2023-02-28T06:37:24;-0.30;118.99
66726;HTU21D;53638;51.062;5.804;2023-02-28T06:39:52;-0.30;118.99
66726;HTU21D;53638;51.062;5.804;2023-02-28T06:42:18;-0.29;118.99
66726;HTU21D;53638;51.062;5.804;2023-02-28T06:44:58;-0.27;118.99
66726;HTU21D;53638;51.062;5.804;2023-02-28T06:47:25;-0.25;118.99
66726;HTU21D;53638;51.062;5.804;2023-02-28T06:50:08;-0.25;118.99
66726;HTU21D;53638;51.062;5.804;2023-02-28T06:52:34;-0.23;118.99
66726;HTU21D;53638;51.062;5.804;2023-02-28T06:55:17;-0.23;118.99
66726;HTU21D;53638;51.062;5.804;2023-02-28T06:57:45;-0.21;118.99
66726;HTU21D;53638;51.062;5.804;2023-02-28T07:00:26;-0.16;118.99
66726;HTU21D;53638;51.062;5.804;2023-02-28T07:02:52;-0.12;118.99
66726;HTU21D;53638;51.062;5.804;2023-02-28T07:05:20;-0.11;118.99
66726;HTU21D;53638;51.062;5.804;2023-02-28T07:08:02;-0.08;118.99
66726;HTU21D;53638;51.062;5.804;2023-02-28T07:10:31;-0.08;118.99
66726;HTU21D;53638;51.062;5.804;2023-02-28T07:12:57;-0.05;118.99
66726;HTU21D;53638;51.062;5.804;2023-02-28T07:15:37;0.01;118.99
66726;HTU21D;53638;51.062;5.804;2023-02-28T07:18:08;0.07;118.99
66726;HTU21D;53638;51.062;5.804;2023-02-28T07:20:34;0.12;118.99
66726;HTU21D;53638;51.062;5.804;2023-02-28T07:23:25;0.17;118.99
66726;HTU21D;53638;51.062;5.804;2023-02-28T07:25:51;0.22;118.99
66726;HTU21D;53638;51.062;5.804;2023-02-28T07:28:17;0.25;118.99
66726;HTU21D;53638;51.062;5.804;2023-02-28T07:34:21;0.36;118.99
66726;HTU21D;53638;51.062;5.804;2023-02-28T07:37:12;0.39;118.99
66726;HTU21D;53638;51.062;5.804;2023-02-28T07:39:38;0.44;118.99
66726;HTU21D;53638;51.062;5.804;2023-02-28T07:42:13;0.48;118.99
66726;HTU21D;53638;51.062;5.804;2023-02-28T07:44:44;0.54;118.99
66726;HTU21D;53638;51.062;5.804;2023-02-28T07:47:10;0.58;118.99
66726;HTU21D;53638;51.062;5.804;2023-02-28T07:49:36;0.61;118.99
66726;HTU21D;53638;51.062;5.804;2023-02-28T07:52:04;0.65;118.99
66726;HTU21D;53638;51.062;5.804;2023-02-28T07:54:31;0.72;118.99
66726;HTU21D;53638;51.062;5.804;2023-02-28T07:59:56;0.90;118.99
66726;HTU21D;53638;51.062;5.804;2023-02-28T08:02:43;0.99;118.99
66726;HTU21D;53638;51.062;5.804;2023-02-28T08:05:09;1.06;118.99
66726;HTU21D;53638;51.062;5.804;2023-02-28T08:07:35;1.11;118.99
66726;HTU21D;53638;51.062;5.804;2023-02-28T08:10:11;1.19;118.99
66726;HTU21D;53638;51.062;5.804;2023-02-28T08:12:37;1.25;118.99
66726;HTU21D;53638;51.062;5.804;2023-02-28T08:15:03;1.28;118.99
66726;HTU21D;53638;51.062;5.804;2023-02-28T08:17:29;1.32;118.99
66726;HTU21D;53638;51.062;5.804;2023-02-28T08:20:21;1.34;118.99
66726;HTU21D;53638;51.062;5.804;2023-02-28T08:22:46;1.40;118.99
66726;HTU21D;53638;51.062;5.804;2023-02-28T08:25:12;1.48;118.99
66726;HTU21D;53638;51.062;5.804;2023-02-28T08:27:38;1.53;118.99
66726;HTU21D;53638;51.062;5.804;2023-02-28T08:30:04;1.61;118.99
66726;HTU21D;53638;51.062;5.804;2023-02-28T08:32:33;1.75;118.99
66726;HTU21D;53638;51.062;5.804;2023-02-28T08:34:59;1.88;118.99
66726;HTU21D;53638;51.062;5.804;2023-02-28T08:37:25;1.93;118.99
66726;HTU21D;53638;51.062;5.804;2023-02-28T08:39:57;1.92;118.99
66726;HTU21D;53638;51.062;5.804;2023-02-28T08:42:48;1.88;118.99
66726;HTU21D;53638;51.062;5.804;2023-02-28T08:45:14;1.90;118.99
66726;HTU21D;53638;51.062;5.804;2023-02-28T08:48:01;1.94;118.99
66726;HTU21D;53638;51.062;5.804;2023-02-28T08:50:27;1.97;118.99
66726;HTU21D;53638;51.062;5.804;2023-02-28T08:52:53;2.01;118.96
66726;HTU21D;53638;51.062;5.804;2023-02-28T08:55:19;2.06;118.44
66726;HTU21D;53638;51.062;5.804;2023-02-28T08:57:45;2.11;118.34
66726;HTU21D;53638;51.062;5.804;2023-02-28T09:00:11;2.16;117.70
66726;HTU21D;53638;51.062;5.804;2023-02-28T09:02:40;2.19;117.35
66726;HTU21D;53638;51.062;5.804;2023-02-28T09:05:06;2.21;117.09
66726;HTU21D;53638;51.062;5.804;2023-02-28T09:07:33;2.25;116.31
66726;HTU21D;53638;51.062;5.804;2023-02-28T09:09:59;2.38;116.84
66726;HTU21D;53638;51.062;5.804;2023-02-28T09:12:27;2.47;116.15
66726;HTU21D;53638;51.062;5.804;2023-02-28T09:15:02;2.53;115.51
66726;HTU21D;53638;51.062;5.804;2023-02-28T09:17:28;2.58;114.15
66726;HTU21D;53638;51.062;5.804;2023-02-28T09:19:54;2.67;112.56
66726;HTU21D;53638;51.062;5.804;2023-02-28T09:22:20;2.69;111.43
66726;HTU21D;53638;51.062;5.804;2023-02-28T09:24:46;2.76;111.23
66726;HTU21D;53638;51.062;5.804;2023-02-28T09:27:12;2.76;110.52
66726;HTU21D;53638;51.062;5.804;2023-02-28T09:29:38;2.83;110.32
66726;HTU21D;53638;51.062;5.804;2023-02-28T09:32:04;2.93;109.88
66726;HTU21D;53638;51.062;5.804;2023-02-28T09:34:31;3.04;108.64
66726;HTU21D;53638;51.062;5.804;2023-02-28T09:36:57;3.11;105.89
66726;HTU21D;53638;51.062;5.804;2023-02-28T09:39:24;3.21;105.79
66726;HTU21D;53638;51.062;5.804;2023-02-28T09:41:54;3.26;105.96
66726;HTU21D;53638;51.062;5.804;2023-02-28T09:44:41;3.35;105.69
66726;HTU21D;53638;51.062;5.804;2023-02-28T09:47:27;3.45;104.29
66726;HTU21D;53638;51.062;5.804;2023-02-28T10:32:50;4.75;92.80
66726;HTU21D;53638;51.062;5.804;2023-02-28T17:50:48;6.16;90.31
